• Join FlightAware (Why Join?)
  • Login
  • US Flag 
03:34AM EDT


 

Airport Tracker/Info


-or-


 

Live Flight TrackerFlight Track Log ✈ SWA561 ✈ 16-Jun-2013 ✈ KCLE - KBNA

Flight Track Log - Related Links

Times and Time Zones

All times are in EDT time to prevent confusion due to time zone crossing. See the SWA561 flight status page for this flight to view local times or setup timezone preferences in your user account.

Time Position Orientation Groundspeed Altitude Reporting Facility
EDT Latitude Longitude Course Direction KTS MPH feet Rate Location/Type
06:29PM 41.3678 -81.9692 244° Southwest 227 261 4,300  Level Cleveland Center
06:30PM 41.3592 -82.0050 252° West 239 275 5,600 1,080 Climbing Cleveland Center
06:31PM 41.3372 -82.0903 251° West 246 283 6,000 1,320 Climbing Cleveland Center
06:32PM 41.3047 -82.1753 243° Southwest 255 293 8,300 2,220 Climbing Cleveland Center
06:33PM 41.2617 -82.2625 237° Southwest 267 307 10,500 1,800 Climbing Cleveland Center
06:34PM 41.2125 -82.3553 235° Southwest 296 341 11,900 1,200 Climbing Cleveland Center
06:35PM 41.2022 -82.4681 263° West 302 348 12,900 780 Climbing Cleveland Center
06:36PM 41.1753 -82.5886 253° West 327 376 13,500 1,320 Climbing Cleveland Center
06:37PM 41.1750 -82.7183 270° West 350 403 15,600 2,160 Climbing Cleveland Center
06:38PM 41.1808 -82.8508 273° West 362 417 17,800 1,980 Climbing Cleveland Center
06:39PM 41.1636 -82.9689 259° West 362 417 19,700 1,800 Climbing Cleveland Center
06:40PM 41.0764 -83.0539 216° Southwest 345 397 21,500 1,800 Climbing Cleveland Center
06:41PM 40.9828 -83.1358 213° Southwest 403 464 23,400 1,740 Climbing Cleveland Center
06:42PM 40.8828 -83.2253 214° Southwest 398 458 25,100 1,440 Climbing Cleveland Center
06:43PM 40.7958 -83.3011 213° Southwest 410 472 26,200 1,740 Climbing Indianapolis Center
06:44PM 40.7072 -83.3811 214° Southwest 416 479 28,500 2,280 Climbing Indianapolis Center
06:45PM 40.6200 -83.4581 214° Southwest 379 436 31,000 1,740 Climbing Indianapolis Center
06:46PM 40.5217 -83.5456 214° Southwest 365 420 32,100 960 Climbing Indianapolis Center
06:47PM 40.4361 -83.6206 214° Southwest 368 423 33,000 420 Climbing Indianapolis Center
06:48PM 40.3497 -83.6947 213° Southwest 368 423 33,000  Level Indianapolis Center
06:49PM 40.2639 -83.7694 214° Southwest 369 425 33,000  Level Indianapolis Center
06:50PM 40.1769 -83.8447 213° Southwest 373 429 33,000  Level Indianapolis Center
06:51PM 40.0903 -83.9208 214° Southwest 373 429 33,000  Level Indianapolis Center
06:52PM 39.9875 -84.0089 213° Southwest 377 434 33,000  Level Indianapolis Center
06:53PM 39.8989 -84.0847 213° Southwest 379 436 33,000 240 Level Indianapolis Center
06:54PM 39.8100 -84.1608 213° Southwest 381 438 33,500 480 Climbing Indianapolis Center
06:55PM 39.7203 -84.2372 213° Southwest 382 440 34,000 240 Climbing Indianapolis Center
06:56PM 39.6283 -84.3144 213° Southwest 388 447 34,000  Level Indianapolis Center
06:57PM 39.5375 -84.3919 213° Southwest 390 449 34,000  Level Indianapolis Center
06:58PM 39.4464 -84.4689 213° Southwest 388 447 34,000  Level Indianapolis Center
06:59PM 39.3406 -84.5586 213° Southwest 386 444 34,000  Level Indianapolis Center
07:00PM 39.2503 -84.6350 213° Southwest 386 444 34,000  Level Indianapolis Center
07:01PM 39.1614 -84.7094 213° Southwest 379 436 34,000  Level Indianapolis Center
07:02PM 39.0717 -84.7836 213° Southwest 380 437 34,000  Level Indianapolis Center
07:03PM 38.9819 -84.8592 213° Southwest 382 440 34,000  Level Indianapolis Center
07:04PM 38.8983 -84.9281 213° Southwest 379 436 34,000  Level Indianapolis Center
07:05PM 38.7906 -85.0156 212° Southwest 381 438 34,000  Level Indianapolis Center
07:06PM 38.7019 -85.0897 213° Southwest 380 437 34,000  Level Indianapolis Center
07:07PM 38.6047 -85.1678 212° Southwest 383 441 34,000  Level Indianapolis Center
07:08PM 38.5147 -85.2364 211° Southwest 379 436 34,000  Level Indianapolis Center
07:09PM 38.4242 -85.3075 212° Southwest 379 436 34,000  Level Indianapolis Center
07:10PM 38.3308 -85.3803 211° Southwest 388 447 34,000 -480 Level Indianapolis Center
07:11PM 38.2347 -85.4544 211° Southwest 397 457 33,100 -900 Descending Indianapolis Center
07:12PM 38.1383 -85.5292 211° Southwest 402 463 32,200 -960 Descending Indianapolis Center
07:14PM 38.0406 -85.6047 211° Southwest 407 468 31,200 -1,500 Descending Indianapolis Center
07:15PM 37.9414 -85.6797 211° Southwest 411 473 29,200 -1,980 Descending Indianapolis Center
07:16PM 37.8414 -85.7558 211° Southwest 415 478 27,200 -2,160 Descending Indianapolis Center
07:17PM 37.7222 -85.8475 211° Southwest 414 476 24,800 -2,220 Descending Indianapolis Center
07:18PM 37.6294 -85.9186 211° Southwest 393 452 22,700 -1,380 Descending Indianapolis Center
07:19PM 37.5408 -85.9856 211° Southwest 383 441 22,000 -360 Descending Indianapolis Center
07:20PM 37.4525 -86.0519 211° Southwest 372 428 22,000  Level Indianapolis Center
07:21PM 37.3639 -86.1194 211° Southwest 368 423 22,000  Level Indianapolis Center
07:22PM 37.2744 -86.1872 211° Southwest 371 427 22,000 -600 Level Indianapolis Center
07:23PM 37.1817 -86.2553 210° Southwest 379 436 20,800 -1,440 Descending Indianapolis Center
07:24PM 37.0756 -86.3344 211° Southwest 378 435 19,100 -1,620 Descending Indianapolis Center
07:25PM 36.9892 -86.3983 211° Southwest 364 419 17,600 -1,380 Descending Indianapolis Center
07:25PM 36.9631 -86.4183 211° Southwest 357 411 17,100 -1,500 Descending Memphis Center
07:26PM 36.8817 -86.4794 211° Southwest 351 404 15,500 -1,740 Descending Memphis Center
07:27PM 36.7981 -86.5431 211° Southwest 345 397 13,700 -1,800 Descending Memphis Center
07:28PM 36.7011 -86.5733 194° South 345 397 11,900 -1,380 Descending Memphis Center
07:29PM 36.6139 -86.5800 184° South 331 381 11,000 -1,200 Descending Memphis Center
07:30PM 36.5347 -86.5839 182° South 303 349 9,500 -1,620 Descending Memphis Center
07:31PM 36.4556 -86.5850 181° South 293 337 7,800 -1,800 Descending Memphis Center
07:32PM 36.3786 -86.5886 182° South 288 331 5,900 -1,980 Descending Memphis Center
07:33PM 36.3014 -86.5922 182° South 288 331 3,900 -1,620 Descending Memphis Center
07:34PM 36.2439 -86.6128 196° South 265 305 2,700 -1,080 Descending Memphis Center
07:35PM 36.1986 -86.6328 200° South 206 237 1,800 -780 Descending Memphis Center
07:36PM 36.1594 -86.6500 200° South 164 189 1,200 -600 Descending Memphis Center
07:37PM 36.1203 -86.6647 197° South 147 169 700 -540 Descending Memphis Center
07:43PM 36.1167 -86.6667 141° Southeast  Level FlightAware Approximate
07:50PM 36.1245 -86.6782 141° Southeast  Level Estimated
07:51PM 36.1245 -86.6782 141° Southeast  Level Estimated
07:52PM 36.1245 -86.6782 141° Southeast  Level Estimated
07:53PM 36.1245 -86.6782 141° Southeast  Level Estimated
07:54PM 36.1245 -86.6782 141° Southeast  Level Estimated
07:55PM 36.1245 -86.6782 141° Southeast  Level Estimated
07:56PM 36.1245 -86.6782 141° Southeast  Level Estimated
07:57PM 36.1245 -86.6782 141° Southeast  Level Estimated
07:58PM 36.1245 -86.6782 141° Southeast  Level Estimated